Time;durP1;ratioP1;P1;durP2;ratioP2;P2;SDS_P1;SDS_P2;PMS_P1;PMS_P2;Temp;Humidity;BMP_temperature;BMP_pressure;BME280_temperature;BME280_humidity;BME280_pressure;Samples;Min_cycle;Max_cycle;Signal;HPM_P1;HPM_P2
2022/04/17 00:01:36;;;;;;;4.55;1.95;;;;;;;10.57;32.85;103021.00;5030507;28;96682;-69
2022/04/17 00:04:04;;;;;;;2.20;1.60;;;;;;;10.61;32.75;103018.38;5034727;28;96874;-71
2022/04/17 00:06:31;;;;;;;3.45;1.92;;;;;;;10.72;32.65;103015.72;5030463;28;99221;-70
2022/04/17 00:08:58;;;;;;;2.65;1.70;;;;;;;10.45;33.40;103021.00;5028216;28;101656;-70
2022/04/17 00:11:24;;;;;;;2.17;1.80;;;;;;;10.24;33.47;103019.22;5035424;27;97161;-70
2022/04/17 00:13:51;;;;;;;7.75;2.20;;;;;;;10.07;33.58;103013.84;5027392;28;96785;-69
2022/04/17 00:16:17;;;;;;;3.10;1.85;;;;;;;9.76;35.03;103014.63;5034203;28;101315;-69
2022/04/17 00:18:44;;;;;;;3.10;1.90;;;;;;;9.57;34.93;103018.97;5033960;28;98264;-71
2022/04/17 00:21:11;;;;;;;2.47;1.90;;;;;;;9.67;34.69;103018.13;5029241;28;96839;-68
2022/04/17 00:23:38;;;;;;;2.95;1.85;;;;;;;10.08;34.38;103020.03;5023602;28;96851;-69
2022/04/17 00:26:04;;;;;;;2.85;1.90;;;;;;;10.12;33.85;103006.81;5028309;28;101000;-70
2022/04/17 00:28:31;;;;;;;3.28;2.03;;;;;;;10.41;33.83;103009.56;5032829;28;98116;-70
2022/04/17 00:30:57;;;;;;;5.82;2.22;;;;;;;10.34;33.38;103008.66;5026897;28;96821;-70
2022/04/17 00:33:24;;;;;;;4.63;2.65;;;;;;;9.93;34.36;103019.09;5026767;28;96901;-69
2022/04/17 00:35:50;;;;;;;4.78;2.45;;;;;;;10.02;34.01;103015.59;5030945;28;99424;-69
2022/04/17 00:38:18;;;;;;;3.67;2.22;;;;;;;10.26;33.85;103010.41;5027373;28;100476;-70
2022/04/17 00:40:44;;;;;;;4.57;2.13;;;;;;;10.43;33.61;103013.09;5032194;28;97152;-69
2022/04/17 00:43:23;;;;;;;3.50;1.92;;;;;;;10.39;33.95;103004.25;5023143;28;97115;-69
2022/04/17 00:45:52;;;;;;;7.00;2.47;;;;;;;10.50;33.41;103006.91;5031331;28;98982;-70
2022/04/17 00:48:19;;;;;;;3.60;2.30;;;;;;;10.39;33.54;103003.38;5030008;28;99070;-70
2022/04/17 00:50:46;;;;;;;3.25;2.00;;;;;;;10.42;33.44;102998.09;5031020;28;96751;-69
2022/04/17 00:53:14;;;;;;;5.60;2.05;;;;;;;10.78;32.96;102984.88;5033756;28;96820;-68
2022/04/17 00:55:42;;;;;;;3.70;2.00;;;;;;;10.67;32.81;102983.13;5031718;28;99349;-69
2022/04/17 00:58:09;;;;;;;3.60;1.90;;;;;;;10.67;33.18;102984.00;5021398;28;98948;-69
2022/04/17 01:00:36;;;;;;;3.45;2.17;;;;;;;10.25;33.98;102987.50;5033787;28;96918;-69
2022/04/17 01:03:03;;;;;;;3.47;2.22;;;;;;;10.73;32.87;102980.47;5023584;28;97868;-68
2022/04/17 01:05:29;;;;;;;3.97;2.40;;;;;;;10.66;33.40;102979.59;5034160;28;101926;-70
2022/04/17 01:07:56;;;;;;;4.30;2.45;;;;;;;10.42;33.37;102990.19;5025549;28;100951;-69
2022/04/17 01:10:22;;;;;;;2.47;1.98;;;;;;;10.06;34.33;102990.94;5035206;27;96823;-69
2022/04/17 01:12:50;;;;;;;4.03;2.38;;;;;;;10.28;34.06;102992.81;5030059;27;97266;-69
2022/04/17 01:15:16;;;;;;;5.38;2.40;;;;;;;10.21;34.26;102996.31;5025772;28;101530;-69
2022/04/17 01:17:43;;;;;;;3.95;1.90;;;;;;;10.65;33.40;102996.34;5028319;28;97613;-68
2022/04/17 01:20:11;;;;;;;5.43;2.25;;;;;;;10.57;33.36;102995.44;5031456;28;96798;-69
2022/04/17 01:22:47;;;;;;;2.60;1.90;;;;;;;10.83;33.07;102991.94;5027309;28;96909;-69
2022/04/17 01:27:57;;;;;;;4.00;2.17;;;;;;;10.69;33.07;102987.53;5032157;27;97169;-70
2022/04/17 01:30:24;;;;;;;6.78;2.10;;;;;;;10.62;32.86;102983.13;5027836;28;96753;-69
2022/04/17 01:32:50;;;;;;;4.88;2.30;;;;;;;10.74;33.12;102984.88;5027162;28;96815;-70
2022/04/17 01:35:16;;;;;;;3.00;2.22;;;;;;;10.73;33.24;102976.06;5028529;28;98944;-69
2022/04/17 01:37:47;;;;;;;4.15;2.22;;;;;;;10.63;33.18;102976.94;5028743;28;99131;-68
2022/04/17 01:40:13;;;;;;;3.42;2.40;;;;;;;10.06;34.01;102984.78;5032337;28;96754;-68
2022/04/17 01:42:40;;;;;;;3.33;2.03;;;;;;;9.58;34.90;102989.06;5026056;28;96820;-70
2022/04/17 01:45:07;;;;;;;4.70;2.03;;;;;;;10.09;34.36;102990.09;5028713;28;98693;-69
2022/04/17 01:47:33;;;;;;;2.60;2.10;;;;;;;10.38;33.73;102989.28;5028353;28;99384;-69
2022/04/17 01:50:00;;;;;;;4.20;1.98;;;;;;;10.52;33.93;102985.75;5019775;28;96868;-70
2022/04/17 01:52:28;;;;;;;2.78;2.08;;;;;;;10.60;33.69;102979.59;5027985;28;97350;-70
2022/04/17 01:54:55;;;;;;;3.10;1.88;;;;;;;10.62;34.33;102992.81;5027097;28;99351;-70
2022/04/17 01:57:22;;;;;;;4.82;2.55;;;;;;;10.15;35.21;102995.38;5029999;28;98813;-70
2022/04/17 01:59:48;;;;;;;4.07;2.50;;;;;;;10.00;37.08;102993.59;5031668;28;96779;-70
2022/04/17 02:02:14;;;;;;;3.17;2.20;;;;;;;9.97;37.09;102990.94;5031957;28;97785;-69
2022/04/17 02:04:41;;;;;;;3.13;2.08;;;;;;;10.08;37.55;102986.56;5029564;28;98967;-70
2022/04/17 02:07:08;;;;;;;3.22;2.28;;;;;;;9.92;38.01;102980.34;5032808;28;98828;-68
2022/04/17 02:09:34;;;;;;;2.88;1.90;;;;;;;9.65;38.58;102984.69;5030390;27;96748;-69
2022/04/17 02:12:02;;;;;;;3.85;1.95;;;;;;;9.98;37.33;102976.84;5031287;28;96847;-70
2022/04/17 02:14:29;;;;;;;4.82;2.47;;;;;;;10.08;37.23;102977.75;5027225;27;99228;-70
2022/04/17 02:16:55;;;;;;;3.53;2.03;;;;;;;9.74;38.24;102972.38;5035590;28;98920;-71
2022/04/17 02:19:21;;;;;;;4.90;2.10;;;;;;;9.69;38.43;102976.78;5031413;28;97690;-70
2022/04/17 02:21:48;;;;;;;3.72;2.17;;;;;;;9.88;37.79;102978.59;5035385;28;97704;-69
2022/04/17 02:24:14;;;;;;;3.55;2.22;;;;;;;9.88;38.06;102975.97;5029050;28;99256;-70
2022/04/17 02:26:41;;;;;;;3.75;2.40;;;;;;;9.61;38.84;102978.50;5028548;28;99153;-70
2022/04/17 02:29:08;;;;;;;7.65;2.50;;;;;;;9.55;39.08;102979.38;5029231;28;96999;-69
2022/04/17 02:31:35;;;;;;;5.18;2.35;;;;;;;9.43;39.57;102973.16;5034184;28;97719;-68
2022/04/17 02:34:01;;;;;;;4.72;2.35;;;;;;;9.47;39.40;102978.44;5035130;28;98958;-69
2022/04/17 02:36:28;;;;;;;7.13;2.70;;;;;;;9.18;40.35;102973.03;5026092;28;98926;-68
2022/04/17 02:38:55;;;;;;;5.30;2.35;;;;;;;9.59;39.31;102967.03;5025051;28;97036;-71
2022/04/17 02:41:22;;;;;;;5.63;2.40;;;;;;;9.38;39.75;102972.25;5035792;28;96839;-70
2022/04/17 02:43:48;;;;;;;8.70;2.75;;;;;;;9.22;40.57;102970.41;5028022;28;99590;-69
2022/04/17 02:47:42;;;;;;;4.65;2.35;;;;;;;9.39;40.35;102966.97;5029472;28;98878;-69
2022/04/17 02:49:02;;;;;;;4.07;2.60;;;;;;;9.12;40.83;102961.56;5030896;27;96863;-68
2022/04/17 02:51:28;;;;;;;;;;;;;;;8.93;41.26;102975.50;5030100;28;96982;-70
2022/04/17 02:53:55;;;;;;;4.57;2.28;;;;;;;9.04;40.93;102961.53;5035643;28;98894;-69
2022/04/17 02:56:21;;;;;;;5.13;2.53;;;;;;;9.10;40.85;102958.91;5027156;28;98840;-69
2022/04/17 02:58:47;;;;;;;5.50;2.33;;;;;;;9.08;40.44;102957.13;5033384;28;97046;-69
2022/04/17 03:06:43;;;;;;;4.40;2.88;;;;;;;8.93;41.71;102957.91;5021259;28;97097;-71
2022/04/17 03:09:09;;;;;;;5.75;2.70;;;;;;;8.83;41.47;102949.94;5026353;28;96729;-69
2022/04/17 03:11:35;;;;;;;3.83;2.45;;;;;;;8.74;41.83;102956.91;5033191;27;96911;-70
2022/04/17 03:14:02;;;;;;;4.93;2.80;;;;;;;8.79;41.66;102952.56;5026635;28;97946;-69
2022/04/17 03:16:29;;;;;;;4.47;2.60;;;;;;;8.71;42.10;102945.47;5026078;28;98787;-70
2022/04/17 03:18:56;;;;;;;3.78;2.45;;;;;;;8.73;42.11;102949.00;5027523;28;96717;-69
2022/04/17 03:21:22;;;;;;;3.47;2.45;;;;;;;8.81;42.04;102944.66;5030129;28;96875;-69
2022/04/17 03:23:49;;;;;;;5.25;2.30;;;;;;;8.69;42.13;102944.56;5032549;28;98902;-69
2022/04/17 03:26:15;;;;;;;7.38;2.92;;;;;;;8.95;41.35;102935.09;5026878;28;99014;-69
2022/04/17 03:28:41;;;;;;;3.58;2.28;;;;;;;8.64;42.22;102935.75;5026378;28;96832;-70
2022/04/17 03:31:08;;;;;;;4.18;2.55;;;;;;;8.59;42.55;102924.31;5021870;28;97022;-70
2022/04/17 03:33:36;;;;;;;4.15;2.47;;;;;;;8.50;42.71;102924.25;5026478;28;98744;-69
2022/04/17 03:36:03;;;;;;;3.03;2.15;;;;;;;8.45;43.00;102918.06;5025676;28;99314;-68
2022/04/17 03:38:29;;;;;;;4.18;2.53;;;;;;;8.45;42.80;102920.69;5027039;28;96749;-70
2022/04/17 03:40:56;;;;;;;4.25;2.20;;;;;;;8.72;41.78;102920.91;5026483;28;96826;-69
2022/04/17 03:43:23;;;;;;;6.13;3.05;;;;;;;8.74;41.76;102916.50;5030106;28;99997;-69
2022/04/17 03:45:50;;;;;;;6.78;2.70;;;;;;;9.05;41.39;102913.19;5032416;28;97849;-69
2022/04/17 03:48:16;;;;;;;5.40;2.42;;;;;;;8.86;41.73;102915.72;5032605;28;96847;-68
2022/04/17 03:50:45;;;;;;;4.30;2.42;;;;;;;8.74;42.37;102909.47;5032906;28;96771;-69
2022/04/17 03:53:11;;;;;;;5.63;2.60;;;;;;;8.67;42.23;102912.94;5020108;28;98790;-69
2022/04/17 03:55:37;;;;;;;6.13;2.85;;;;;;;8.84;42.11;102915.69;5028063;28;99102;-69
2022/04/17 03:58:04;;;;;;;7.38;2.58;;;;;;;8.88;42.40;102912.19;5030754;28;97388;-69
2022/04/17 04:00:30;;;;;;;5.43;2.25;;;;;;;9.34;41.16;102912.41;5026679;28;97016;-68
2022/04/17 04:02:57;;;;;;;4.30;2.55;;;;;;;8.95;41.94;102914.00;5027850;28;98838;-69
2022/04/17 04:05:23;;;;;;;3.42;2.40;;;;;;;8.81;43.22;102910.38;5028332;28;98916;-69
2022/04/17 04:07:51;;;;;;;7.95;2.63;;;;;;;8.68;43.70;102917.34;5024905;28;96722;-70
2022/04/17 04:10:17;;;;;;;5.15;2.80;;;;;;;8.67;43.68;102910.31;5027832;27;96931;-70
2022/04/17 04:12:44;;;;;;;6.13;2.58;;;;;;;8.78;43.94;102910.38;5025617;28;98791;-70
2022/04/17 04:15:10;;;;;;;4.97;2.42;;;;;;;8.52;44.81;102912.84;5025818;28;99265;-68
2022/04/17 04:17:37;;;;;;;4.72;2.67;;;;;;;8.69;43.99;102910.31;5030741;28;96841;-70
2022/04/17 04:20:06;;;;;;;6.05;2.90;;;;;;;8.56;44.95;102908.47;5029121;28;96785;-69
2022/04/17 04:22:32;;;;;;;4.90;2.53;;;;;;;8.65;44.37;102906.78;5022733;28;98932;-69
2022/04/17 04:25:00;;;;;;;4.22;2.55;;;;;;;8.60;44.65;102905.84;5020063;28;98895;-69
2022/04/17 04:30:11;;;;;;;3.78;2.53;;;;;;;8.69;44.16;102911.19;5026754;28;96640;-70
2022/04/17 04:32:37;;;;;;;3.25;2.42;;;;;;;8.89;43.92;102906.06;5022467;28;98217;-70
2022/04/17 04:35:04;;;;;;;3.95;2.30;;;;;;;8.69;43.56;102915.59;5030548;28;98994;-70
2022/04/17 04:37:31;;;;;;;3.33;2.63;;;;;;;9.07;42.75;102919.31;5024708;27;97322;-69
2022/04/17 04:39:58;;;;;;;3.53;2.40;;;;;;;9.38;41.83;102919.47;5033117;28;98437;-70
2022/04/17 04:42:26;;;;;;;5.78;2.72;;;;;;;9.20;42.09;102921.16;5030124;28;98953;-68
2022/04/17 04:46:06;;;;;;;4.10;2.53;;;;;;;9.73;41.06;102917.81;5030499;28;98044;-68
2022/04/17 04:47:38;;;;;;;4.75;2.78;;;;;;;9.89;40.55;102927.53;5016741;28;97238;-69
2022/04/17 04:50:05;;;;;;;5.50;2.63;;;;;;;10.13;40.69;102925.81;5022982;28;96843;-69
2022/04/17 04:52:36;;;;;;;4.63;3.28;;;;;;;9.93;39.77;102925.78;5026378;28;99460;-69
2022/04/17 04:55:03;;;;;;;8.18;3.85;;;;;;;10.03;38.83;102924.94;5026766;28;99381;-70
2022/04/17 04:57:30;;;;;;;4.65;3.25;;;;;;;10.11;38.15;102922.31;5025411;28;96875;-69
2022/04/17 04:59:57;;;;;;;7.68;3.92;;;;;;;10.13;37.83;102915.22;5025073;28;96867;-69
2022/04/17 05:02:23;;;;;;;6.75;3.50;;;;;;;10.37;37.30;102917.94;5019564;28;99211;-70
2022/04/17 05:04:50;;;;;;;6.55;3.75;;;;;;;10.28;37.45;102923.22;5024497;28;98936;-70
2022/04/17 05:07:16;;;;;;;7.00;3.47;;;;;;;10.25;37.09;102923.19;5022749;28;97400;-69
2022/04/17 05:09:42;;;;;;;6.60;3.63;;;;;;;10.21;36.98;102926.72;5027348;27;96953;-69
2022/04/17 05:12:09;;;;;;;3.92;3.03;;;;;;;9.81;37.17;102929.28;5032224;27;98914;-69
2022/04/17 05:14:40;;;;;;;4.40;2.70;;;;;;;9.63;37.41;102934.53;5012798;28;98909;-69
2022/04/17 05:17:06;;;;;;;4.47;3.25;;;;;;;9.42;38.09;102931.81;5027249;28;96789;-70
2022/04/17 05:19:32;;;;;;;6.68;3.50;;;;;;;9.85;36.79;102928.41;5025228;28;96713;-69
2022/04/17 05:21:59;;;;;;;5.50;3.53;;;;;;;10.02;36.88;102927.56;5025490;28;98940;-69
2022/04/17 05:24:26;;;;;;;5.97;3.40;;;;;;;9.97;36.60;102932.84;5024779;28;100040;-70
2022/04/17 05:26:53;;;;;;;4.05;3.10;;;;;;;9.74;37.22;102927.50;5024619;28;98245;-69
2022/04/17 05:29:20;;;;;;;5.28;3.55;;;;;;;9.65;37.40;102924.81;5023666;28;96881;-68
2022/04/17 05:31:48;;;;;;;7.90;3.42;;;;;;;10.01;37.00;102929.31;5026791;28;99248;-70
2022/04/17 05:34:15;;;;;;;5.53;3.15;;;;;;;10.00;36.67;102928.44;5022898;28;98814;-68
2022/04/17 05:36:41;;;;;;;5.72;3.70;;;;;;;9.72;37.09;102931.88;5027173;28;97178;-68
2022/04/17 05:39:08;;;;;;;6.10;3.60;;;;;;;10.45;35.94;102925.84;5022619;28;96782;-67
2022/04/17 05:41:34;;;;;;;6.43;3.35;;;;;;;10.02;36.58;102936.38;5026543;28;101901;-68
2022/04/17 05:44:02;;;;;;;5.32;3.38;;;;;;;10.08;36.79;102924.94;5024464;28;98409;-67
2022/04/17 05:46:30;;;;;;;5.70;3.28;;;;;;;10.73;35.86;102915.25;5028658;28;96684;-69
2022/04/17 05:48:58;;;;;;;7.47;3.63;;;;;;;11.02;35.47;102923.13;5022836;28;96927;-70
2022/04/17 05:51:25;;;;;;;5.97;3.47;;;;;;;10.61;35.85;102920.56;5028873;28;99352;-69
2022/04/17 05:53:51;;;;;;;6.80;3.60;;;;;;;11.00;35.38;102924.00;5023228;28;98944;-69
2022/04/17 05:56:18;;;;;;;6.28;3.53;;;;;;;11.08;35.21;102927.50;5023079;28;96719;-70
2022/04/17 05:58:44;;;;;;;6.60;3.97;;;;;;;11.42;34.97;102923.81;5027131;28;97524;-68
2022/04/17 06:01:11;;;;;;;5.30;3.38;;;;;;;11.45;34.74;102925.59;5027889;28;98174;-69
2022/04/17 06:03:38;;;;;;;5.65;4.05;;;;;;;11.65;34.23;102917.53;5030014;28;100549;-69
2022/04/17 06:06:05;;;;;;;5.50;3.40;;;;;;;11.16;35.09;102923.94;5024033;28;96886;-70
2022/04/17 06:08:32;;;;;;;6.28;3.70;;;;;;;11.53;34.59;102919.38;5023342;28;96954;-71
2022/04/17 06:10:59;;;;;;;4.55;3.50;;;;;;;11.53;34.78;102921.16;5029040;27;99360;-68
2022/04/17 06:13:25;;;;;;;6.18;3.35;;;;;;;11.94;33.91;102928.91;5030942;27;97746;-68
2022/04/17 06:15:52;;;;;;;7.57;3.33;;;;;;;12.35;33.41;102921.50;5021814;28;96807;-70
2022/04/17 06:18:18;;;;;;;7.60;4.07;;;;;;;12.36;33.39;102928.56;5026515;28;96913;-68
2022/04/17 06:20:45;;;;;;;7.45;4.18;;;;;;;12.43;33.11;102926.72;5021705;28;98948;-68
2022/04/17 06:23:13;;;;;;;6.65;4.22;;;;;;;12.58;33.12;102925.72;5030511;28;99532;-71
2022/04/17 06:25:39;;;;;;;6.57;4.03;;;;;;;12.17;33.03;102918.09;5023193;28;97158;-69
2022/04/17 06:28:06;;;;;;;5.63;4.10;;;;;;;11.76;33.71;102926.34;5026466;28;96854;-69
2022/04/17 06:30:33;;;;;;;7.80;3.50;;;;;;;12.14;33.26;102921.66;5019647;28;98237;-69
2022/04/17 06:32:59;;;;;;;5.47;3.30;;;;;;;12.74;32.14;102922.88;5025099;28;98954;-69
2022/04/17 06:35:26;;;;;;;4.95;3.28;;;;;;;12.44;32.37;102924.97;5028117;28;96817;-69
2022/04/17 06:37:54;;;;;;;10.45;6.72;;;;;;;12.16;32.73;102922.53;5031149;28;96742;-68
2022/04/17 06:40:23;;;;;;;6.32;3.53;;;;;;;12.19;32.58;102916.34;5019163;28;101594;-69
2022/04/17 06:42:51;;;;;;;5.72;3.20;;;;;;;12.68;31.78;102916.75;5026175;28;98988;-69
2022/04/17 06:45:18;;;;;;;4.60;3.42;;;;;;;12.49;32.08;102915.19;5024601;28;96729;-70
2022/04/17 06:47:46;;;;;;;6.20;3.63;;;;;;;12.84;31.82;102922.81;5026677;28;96817;-70
2022/04/17 06:50:14;;;;;;;4.72;2.80;;;;;;;13.27;31.18;102917.91;5029621;28;98185;-70
2022/04/17 06:52:41;;;;;;;4.68;2.72;;;;;;;12.53;31.86;102916.94;5024770;28;99009;-70
2022/04/17 06:55:11;;;;;;;4.75;3.10;;;;;;;12.66;32.35;102907.97;5029058;28;96837;-70
2022/04/17 06:57:44;;;;;;;3.63;2.75;;;;;;;12.84;31.94;102913.06;5024658;28;96733;-69
2022/04/17 07:00:12;;;;;;;3.60;2.63;;;;;;;13.32;30.99;102910.78;5023087;28;97612;-69
2022/04/17 07:02:39;;;;;;;3.03;2.40;;;;;;;13.03;31.01;102908.44;5033431;28;98896;-68
2022/04/17 07:05:07;;;;;;;3.90;3.20;;;;;;;13.43;30.61;102895.59;5033750;28;96959;-69
2022/04/17 07:07:34;;;;;;;4.38;2.67;;;;;;;13.81;30.02;102900.34;5031743;28;96884;-69
2022/04/17 07:10:01;;;;;;;5.40;3.40;;;;;;;13.89;29.60;102899.34;5026775;28;99382;-70
2022/04/17 07:12:29;;;;;;;4.03;2.80;;;;;;;14.58;28.72;102891.09;5030625;27;100053;-69
2022/04/17 07:14:59;;;;;;;4.03;2.50;;;;;;;14.32;28.92;102880.91;5026982;28;96837;-69
2022/04/17 07:17:34;;;;;;;2.97;2.17;;;;;;;14.71;28.79;102876.66;5032493;28;97136;-69
2022/04/17 07:20:00;;;;;;;3.05;2.17;;;;;;;14.84;28.13;102879.09;5028879;28;100090;-69
2022/04/17 07:22:27;;;;;;;5.45;2.70;;;;;;;14.66;28.66;102875.00;5029230;28;98802;-70
2022/04/17 07:24:54;;;;;;;5.18;2.70;;;;;;;14.63;28.75;102872.44;5033602;28;97099;-70
2022/04/17 07:27:20;;;;;;;4.55;2.40;;;;;;;15.08;28.05;102870.63;5029299;28;97008;-69
2022/04/17 07:29:47;;;;;;;3.97;2.10;;;;;;;15.57;27.48;102869.59;5023492;28;97672;-71
2022/04/17 07:32:15;;;;;;;3.33;2.28;;;;;;;15.47;27.36;102869.78;5027638;28;99474;-69
2022/04/17 07:34:42;;;;;;;3.40;2.50;;;;;;;15.28;27.84;102868.44;5029903;28;96648;-69
2022/04/17 07:37:08;;;;;;;2.67;2.03;;;;;;;15.88;26.96;102867.97;5032669;28;97583;-68
2022/04/17 07:39:34;;;;;;;8.93;2.63;;;;;;;15.80;27.24;102865.50;5024668;28;99128;-69
2022/04/17 07:42:01;;;;;;;3.20;2.17;;;;;;;16.33;26.47;102864.16;5029125;28;99207;-69
2022/04/17 07:44:29;;;;;;;4.75;3.25;;;;;;;17.10;25.34;102866.50;5026992;28;97243;-70
2022/04/17 07:46:56;;;;;;;3.45;2.28;;;;;;;17.72;24.46;102854.84;5028748;28;97281;-68
2022/04/17 07:49:26;;;;;;;3.72;2.30;;;;;;;17.05;25.24;102855.06;5024213;28;98984;-71
2022/04/17 07:51:54;;;;;;;5.82;2.40;;;;;;;17.64;24.78;102860.44;5027874;28;101555;-69
2022/04/17 07:54:21;;;;;;;3.17;2.08;;;;;;;16.77;25.57;102867.44;5026532;28;98515;-69
2022/04/17 07:56:47;;;;;;;4.05;2.30;;;;;;;16.85;25.52;102865.44;5022605;28;96970;-70
2022/04/17 07:59:14;;;;;;;3.03;2.10;;;;;;;15.80;26.41;102861.94;5023514;28;99102;-70
2022/04/17 08:01:43;;;;;;;3.30;1.92;;;;;;;15.80;26.12;102853.97;5023675;27;98768;-69
2022/04/17 08:04:09;;;;;;;3.25;1.75;;;;;;;15.70;26.55;102855.94;5025767;28;97039;-71
2022/04/17 08:06:37;;;;;;;4.40;1.90;;;;;;;16.25;25.86;102858.16;5027093;28;98666;-69
2022/04/17 08:09:03;;;;;;;5.25;2.60;;;;;;;16.85;24.98;102859.22;5029971;28;99574;-69
2022/04/17 08:11:30;;;;;;;2.78;1.85;;;;;;;15.88;26.03;102854.66;5021985;28;99159;-70
2022/04/17 08:13:56;;;;;;;2.00;1.80;;;;;;;15.21;26.84;102842.84;5023689;27;99013;-69
2022/04/17 08:16:23;;;;;;;2.20;1.60;;;;;;;15.56;26.69;102839.41;5025407;28;97083;-70
2022/04/17 08:18:50;;;;;;;3.28;1.60;;;;;;;15.16;26.97;102839.41;5024455;28;101690;-69
2022/04/17 08:21:17;;;;;;;3.53;1.90;;;;;;;16.09;25.85;102832.75;5025543;28;99270;-70
2022/04/17 08:23:45;;;;;;;2.45;2.20;;;;;;;15.92;26.14;102832.31;5026269;28;96920;-70
2022/04/17 08:26:11;;;;;;;2.75;2.28;;;;;;;15.52;26.66;102827.03;5023608;28;98754;-68
2022/04/17 08:28:37;;;;;;;4.72;2.30;;;;;;;16.22;25.78;102820.88;5024840;28;99463;-69
2022/04/17 08:31:04;;;;;;;3.67;2.38;;;;;;;15.58;26.70;102818.06;5024098;28;99232;-69
2022/04/17 08:33:32;;;;;;;3.58;2.25;;;;;;;15.22;27.21;102825.06;5032127;28;96865;-69
2022/04/17 08:35:59;;;;;;;3.45;2.58;;;;;;;15.86;26.41;102813.81;5024623;28;96821;-70
2022/04/17 08:38:25;;;;;;;3.85;2.17;;;;;;;16.81;25.34;102809.50;5024426;28;101249;-70
2022/04/17 08:40:57;;;;;;;4.65;2.50;;;;;;;16.72;25.83;102807.97;5025111;28;99817;-70
2022/04/17 08:43:24;;;;;;;4.38;2.13;;;;;;;16.39;25.70;102814.22;5022453;28;96831;-71
2022/04/17 08:45:51;;;;;;;4.35;2.60;;;;;;;17.08;24.81;102806.88;5022854;28;97440;-72
2022/04/17 08:48:18;;;;;;;5.20;2.75;;;;;;;16.92;25.17;102805.59;5029409;28;99386;-69
2022/04/17 08:50:47;;;;;;;4.43;2.90;;;;;;;16.59;25.68;102801.19;5021114;28;99075;-70
2022/04/17 08:53:16;;;;;;;4.60;2.42;;;;;;;16.82;25.37;102803.22;5029685;28;96796;-69
2022/04/17 08:55:43;;;;;;;5.45;3.33;;;;;;;16.79;25.21;102804.22;5022929;28;96892;-69
2022/04/17 08:58:12;;;;;;;3.55;2.55;;;;;;;16.56;25.96;102801.28;5030163;28;101890;-69
2022/04/17 09:00:38;;;;;;;5.90;2.40;;;;;;;17.14;25.33;102795.13;5027054;28;97571;-70
2022/04/17 09:03:08;;;;;;;3.50;2.30;;;;;;;16.64;25.46;102797.50;5028487;27;96902;-69
2022/04/17 09:05:37;;;;;;;5.22;3.30;;;;;;;16.89;25.36;102794.13;5027589;28;96843;-69
2022/04/17 09:08:13;;;;;;;8.52;2.90;;;;;;;17.14;25.01;102792.47;5026223;28;100296;-71
2022/04/17 09:10:39;;;;;;;7.07;2.83;;;;;;;16.78;25.56;102791.78;5029407;27;98541;-69
2022/04/17 09:13:06;;;;;;;6.50;2.80;;;;;;;16.50;25.88;102782.78;5021262;27;96841;-71
2022/04/17 09:15:36;;;;;;;4.78;2.70;;;;;;;16.17;26.38;102785.44;5027326;28;97423;-71
2022/04/17 09:18:05;;;;;;;6.28;3.13;;;;;;;16.13;26.78;102781.13;5027714;28;99753;-70
2022/04/17 09:20:32;;;;;;;4.53;3.05;;;;;;;17.27;25.28;102768.91;5025387;28;99040;-70
2022/04/17 09:23:00;;;;;;;4.20;2.65;;;;;;;16.80;25.53;102770.38;5025212;28;97183;-70
2022/04/17 09:25:27;;;;;;;5.10;3.25;;;;;;;17.24;25.05;102758.34;5026021;28;97310;-70
2022/04/17 09:28:01;;;;;;;4.50;2.88;;;;;;;16.92;25.21;102762.00;5022874;28;101265;-70
2022/04/17 09:30:32;;;;;;;4.68;2.45;;;;;;;16.59;25.62;102761.16;5024563;28;99001;-69
2022/04/17 09:33:04;;;;;;;3.50;2.25;;;;;;;16.25;25.75;102754.09;5021233;27;98953;-70
2022/04/17 09:35:31;;;;;;;3.55;2.40;;;;;;;16.10;26.07;102757.19;5026596;27;97244;-69
2022/04/17 09:37:59;;;;;;;4.68;2.70;;;;;;;16.59;25.81;102747.81;5021775;28;99242;-70
2022/04/17 09:40:27;;;;;;;4.95;2.50;;;;;;;17.71;24.58;102739.00;5026220;27;99364;-70
2022/04/17 09:43:08;;;;;;;3.80;2.45;;;;;;;17.54;24.49;102735.97;5021924;27;97166;-69
2022/04/17 09:45:55;;;;;;;4.15;2.70;;;;;;;17.23;24.96;102732.53;5021506;28;98927;-70
2022/04/17 09:48:23;;;;;;;4.27;2.50;;;;;;;17.37;24.89;102733.84;5015308;27;99005;-70
2022/04/17 09:50:50;;;;;;;6.20;2.40;;;;;;;17.72;24.93;102729.19;5022759;27;98789;-71
2022/04/17 09:53:30;;;;;;;3.55;2.22;;;;;;;17.77;24.73;102730.75;5022777;27;96914;-70
2022/04/17 09:56:10;;;;;;;5.88;2.53;;;;;;;16.59;26.03;102730.03;5025144;27;97010;-71
2022/04/17 09:58:38;;;;;;;6.93;3.03;;;;;;;16.86;25.73;102727.47;5023250;27;101112;-71
2022/04/17 10:01:06;;;;;;;4.45;2.60;;;;;;;16.32;26.60;102726.34;5019346;27;99307;-70
2022/04/17 10:03:36;;;;;;;3.22;2.20;;;;;;;17.08;25.85;102716.06;5028373;27;98593;-70
2022/04/17 10:06:03;;;;;;;4.65;2.40;;;;;;;16.71;26.30;102720.81;5025594;27;96865;-71
2022/04/17 10:08:30;;;;;;;4.93;2.72;;;;;;;16.92;26.21;102706.81;5024661;28;98867;-70
2022/04/17 10:10:58;;;;;;;3.75;2.28;;;;;;;16.72;26.33;102701.19;5033578;27;98812;-69
2022/04/17 10:13:25;;;;;;;3.78;2.30;;;;;;;17.21;25.80;102696.97;5021761;28;98135;-69
2022/04/17 10:15:55;;;;;;;5.78;2.70;;;;;;;17.79;25.40;102699.47;5021075;28;96805;-70
2022/04/17 10:18:23;;;;;;;3.83;2.65;;;;;;;18.15;24.80;102691.09;5028182;28;99049;-72
2022/04/17 10:20:51;;;;;;;3.50;2.47;;;;;;;17.24;25.91;102673.72;5021645;28;98316;-70
2022/04/17 10:23:20;;;;;;;2.63;1.90;;;;;;;16.65;26.13;102688.97;5022098;28;96840;-71
2022/04/17 10:25:49;;;;;;;2.92;1.88;;;;;;;16.75;25.77;102679.72;5024540;27;96893;-70
2022/04/17 10:28:19;;;;;;;2.70;2.20;;;;;;;17.64;24.71;102678.63;5023683;27;99522;-69
2022/04/17 10:30:59;;;;;;;4.03;2.25;;;;;;;17.10;25.38;102675.97;5024613;27;98896;-69
2022/04/17 10:33:36;;;;;;;2.97;1.90;;;;;;;16.60;25.79;102677.56;5025164;27;97869;-71
2022/04/17 10:36:31;;;;;;;5.93;2.72;;;;;;;17.50;24.99;102675.53;5029067;27;96843;-70
2022/04/17 10:39:11;;;;;;;3.35;2.15;;;;;;;17.61;24.87;102676.06;5023993;27;98674;-70
2022/04/17 10:41:39;;;;;;;2.70;1.85;;;;;;;16.69;25.73;102678.13;5027010;27;99511;-70
2022/04/17 10:44:05;;;;;;;4.22;2.20;;;;;;;17.04;25.40;102674.38;5035279;27;96781;-70
2022/04/17 10:46:46;;;;;;;3.72;2.03;;;;;;;16.87;25.37;102668.66;5031939;27;96934;-70
2022/04/17 10:49:12;;;;;;;3.88;2.47;;;;;;;17.00;25.30;102674.53;5030514;28;98949;-70
2022/04/17 10:51:50;;;;;;;4.85;2.20;;;;;;;16.99;25.67;102670.97;5026710;28;99055;-68
2022/04/17 10:54:17;;;;;;;3.33;1.65;;;;;;;17.96;24.44;102668.59;5019287;27;98580;-69
2022/04/17 10:56:58;;;;;;;3.10;1.67;;;;;;;17.85;24.55;102664.50;5025931;27;96940;-69
2022/04/17 10:59:28;;;;;;;3.38;1.98;;;;;;;16.84;25.87;102668.78;5027725;27;99013;-70
2022/04/17 11:02:24;;;;;;;3.25;1.83;;;;;;;16.66;26.00;102662.22;5027812;27;98337;-70
2022/04/17 11:04:53;;;;;;;2.30;1.50;;;;;;;17.61;24.67;102653.78;5025422;27;96890;-68
2022/04/17 11:07:23;;;;;;;2.83;1.80;;;;;;;18.02;24.62;102650.53;5030190;27;98714;-70
2022/04/17 11:10:05;;;;;;;2.97;1.60;;;;;;;18.53;24.09;102642.34;5024847;28;100355;-69
2022/04/17 11:12:33;;;;;;;2.65;1.73;;;;;;;18.08;24.31;102649.44;5030801;27;97514;-70
2022/04/17 11:15:29;;;;;;;2.67;1.85;;;;;;;17.78;24.73;102648.75;5027651;27;96994;-71
2022/04/17 11:18:00;;;;;;;4.55;1.95;;;;;;;17.55;24.21;102641.50;5017168;27;97369;-70
2022/04/17 11:20:27;;;;;;;2.40;1.73;;;;;;;17.47;24.04;102635.53;5028172;27;99408;-70
2022/04/17 11:22:55;;;;;;;2.90;1.80;;;;;;;17.42;23.53;102630.34;5026620;27;98790;-69
2022/04/17 11:25:22;;;;;;;2.08;1.55;;;;;;;16.80;23.96;102631.56;5026262;27;97237;-69
2022/04/17 11:27:50;;;;;;;3.22;1.67;;;;;;;17.03;24.55;102635.22;5025137;28;97037;-69
2022/04/17 11:30:35;;;;;;;2.30;1.60;;;;;;;16.95;24.50;102634.59;5029037;28;97876;-70
2022/04/17 11:33:03;;;;;;;2.95;1.25;;;;;;;16.85;24.66;102616.25;5026915;27;103375;-70
2022/04/17 11:35:30;;;;;;;4.25;1.67;;;;;;;17.10;24.64;102617.19;5033357;28;97174;-71
2022/04/17 11:38:02;;;;;;;13.35;7.30;;;;;;;17.53;23.73;102611.25;5025728;28;96800;-70
2022/04/17 11:40:32;;;;;;;4.60;2.88;;;;;;;17.34;23.88;102610.16;5026327;28;99329;-69
2022/04/17 11:43:06;;;;;;;2.30;1.27;;;;;;;17.13;23.46;102617.97;5030067;28;99110;-70